createdAt,value
2022-10-11T00:02:02.027Z,7.30
2022-10-11T00:05:44.495Z,4.60
2022-10-11T00:09:26.443Z,10.43
2022-10-11T00:13:08.876Z,6.77
2022-10-11T00:16:51.073Z,6.83
2022-10-11T00:20:33.078Z,12.63
2022-10-11T00:24:16.351Z,6.30
2022-10-11T00:27:58.367Z,9.47
2022-10-11T00:31:40.643Z,5.70
2022-10-11T00:35:22.590Z,5.10
2022-10-11T00:39:04.879Z,9.53
2022-10-11T00:42:47.643Z,6.03
2022-10-11T00:46:31.424Z,6.30
2022-10-11T00:50:13.563Z,6.67
2022-10-11T00:53:55.584Z,8.53
2022-10-11T00:57:40.918Z,5.63
2022-10-11T01:01:23.033Z,9.43
2022-10-11T01:05:28.126Z,8.33
2022-10-11T01:09:09.277Z,8.60
2022-10-11T01:13:17.391Z,7.17
2022-10-11T01:17:20.079Z,10.47
2022-10-11T01:21:39.165Z,8.50
2022-10-11T01:25:30.195Z,11.13
2022-10-11T01:29:30.285Z,9.83
2022-10-11T01:33:30.231Z,7.20
2022-10-11T01:37:33.007Z,11.80
2022-10-11T01:41:42.770Z,10.43
2022-10-11T01:45:25.764Z,9.60
2022-10-11T01:49:08.158Z,11.33
2022-10-11T01:52:50.955Z,6.20
2022-10-11T01:56:44.867Z,7.17
2022-10-11T02:00:35.237Z,7.43
2022-10-11T02:04:29.631Z,5.83
2022-10-11T02:08:24.047Z,6.43
2022-10-11T02:12:10.718Z,9.57
2022-10-11T02:19:44.899Z,9.60
2022-10-11T02:23:33.297Z,6.63
2022-10-11T02:27:18.630Z,4.90
2022-10-11T02:31:03.144Z,10.40
2022-10-11T02:34:51.169Z,8.40
2022-10-11T02:38:42.930Z,6.43
2022-10-11T02:42:34.190Z,5.93
2022-10-11T02:46:17.785Z,6.70
2022-10-11T02:50:00.637Z,7.87
2022-10-11T02:53:42.554Z,7.73
2022-10-11T02:57:24.629Z,7.67
2022-10-11T03:01:06.722Z,8.20
2022-10-11T03:04:48.705Z,6.37
2022-10-11T03:08:31.456Z,8.50
2022-10-11T03:12:13.575Z,5.17
2022-10-11T03:16:02.926Z,7.00
2022-10-11T03:19:45.379Z,9.20
2022-10-11T03:23:27.402Z,7.27
2022-10-11T03:27:09.313Z,5.73
2022-10-11T03:30:52.056Z,4.53
2022-10-11T03:34:34.169Z,6.67
2022-10-11T03:38:19.871Z,5.57
2022-10-11T03:42:01.759Z,12.10
2022-10-11T03:45:43.835Z,12.43
2022-10-11T03:49:25.982Z,11.37
2022-10-11T03:53:08.570Z,8.97
2022-10-11T03:56:50.590Z,7.83
2022-10-11T04:00:33.782Z,8.13
2022-10-11T04:04:15.756Z,7.53
2022-10-11T04:07:57.873Z,5.60
2022-10-11T04:11:39.894Z,7.67
2022-10-11T04:15:21.753Z,8.20
2022-10-11T04:19:04.235Z,7.00
2022-10-11T04:22:46.155Z,6.17
2022-10-11T04:26:28.307Z,7.27
2022-10-11T04:30:11.451Z,6.03
2022-10-11T04:33:53.381Z,8.97
2022-10-11T04:37:35.719Z,7.87
2022-10-11T04:41:17.657Z,8.83
2022-10-11T04:44:59.679Z,10.63
2022-10-11T04:48:41.739Z,8.83
2022-10-11T04:52:25.946Z,6.70
2022-10-11T04:56:11.734Z,8.87
2022-10-11T04:59:53.638Z,9.07
2022-10-11T05:03:36.003Z,10.73
2022-10-11T05:07:17.933Z,9.03
2022-10-11T05:11:02.863Z,6.13
2022-10-11T05:14:44.755Z,7.77
2022-10-11T05:18:27.492Z,7.23
2022-10-11T05:22:09.624Z,9.60
2022-10-11T05:25:51.700Z,9.13
2022-10-11T05:29:34.097Z,6.23
2022-10-11T05:33:16.279Z,9.07
2022-10-11T05:36:58.266Z,8.07
2022-10-11T05:40:40.634Z,7.93
2022-10-11T05:44:23.564Z,6.87
2022-10-11T05:48:06.276Z,12.10
2022-10-11T05:51:48.392Z,9.63
2022-10-11T05:55:30.902Z,8.97
2022-10-11T05:59:12.924Z,9.40
2022-10-11T06:02:54.893Z,9.23
2022-10-11T06:06:36.781Z,7.50
2022-10-11T06:10:18.913Z,8.97
2022-10-11T06:14:00.936Z,10.00
2022-10-11T06:17:42.944Z,7.00
2022-10-11T06:21:25.448Z,7.77
2022-10-11T06:25:08.085Z,12.30
2022-10-11T06:28:50.000Z,9.37
2022-10-11T06:32:32.640Z,7.57
2022-10-11T06:36:15.557Z,10.37
2022-10-11T06:39:57.518Z,8.80
2022-10-11T06:43:39.567Z,6.20
2022-10-11T06:47:21.497Z,8.10
2022-10-11T06:51:03.416Z,7.57
2022-10-11T06:54:45.789Z,11.87
2022-10-11T06:58:28.753Z,8.73
2022-10-11T07:02:10.736Z,12.10
2022-10-11T07:05:52.644Z,14.70
2022-10-11T07:09:34.946Z,13.23
2022-10-11T07:13:17.453Z,16.87
2022-10-11T07:16:59.445Z,11.57
2022-10-11T07:20:41.516Z,9.93
2022-10-11T07:24:23.359Z,6.90
2022-10-11T07:28:05.838Z,13.30
2022-10-11T07:31:47.726Z,12.73
2022-10-11T07:35:29.860Z,10.00
2022-10-11T07:39:11.777Z,9.97
2022-10-11T07:42:53.789Z,18.23
2022-10-11T07:46:35.874Z,9.50
2022-10-11T07:50:17.924Z,11.20
2022-10-11T07:54:03.384Z,13.90
2022-10-11T07:57:48.292Z,10.03
2022-10-11T08:01:31.068Z,10.53
2022-10-11T08:05:13.224Z,8.80
2022-10-11T08:08:55.774Z,8.47
2022-10-11T08:12:37.816Z,13.20
2022-10-11T08:16:20.845Z,20.00
2022-10-11T08:20:04.084Z,14.20
2022-10-11T08:23:46.601Z,13.93
2022-10-11T08:27:28.529Z,12.43
2022-10-11T08:31:13.855Z,13.77
2022-10-11T08:34:55.911Z,14.90
2022-10-11T08:38:38.790Z,15.40
2022-10-11T08:42:34.378Z,16.27
2022-10-11T08:46:20.864Z,13.00
2022-10-11T08:54:08.040Z,13.97
2022-10-11T08:57:55.365Z,15.97
2022-10-11T09:01:52.484Z,16.90
2022-10-11T09:05:53.713Z,17.37
2022-10-11T09:09:38.389Z,15.50
2022-10-11T09:13:34.635Z,17.08
2022-10-11T09:17:24.768Z,14.98
2022-10-11T09:21:28.314Z,13.07
2022-10-11T09:25:29.309Z,18.55
2022-10-11T09:29:36.617Z,12.35
2022-10-11T09:33:33.312Z,13.18
2022-10-11T09:37:32.729Z,14.40
2022-10-11T09:41:41.403Z,11.13
2022-10-11T09:45:23.358Z,11.18
2022-10-11T09:49:11.325Z,13.82
2022-10-11T09:53:05.135Z,12.57
2022-10-11T09:56:47.199Z,19.13
2022-10-11T10:00:33.704Z,15.48
2022-10-11T10:04:19.287Z,12.48
2022-10-11T10:08:04.566Z,13.50
2022-10-11T10:11:47.059Z,13.70
2022-10-11T10:15:34.833Z,11.05
2022-10-11T10:19:21.700Z,10.52
2022-10-11T10:23:30.237Z,13.32
2022-10-11T10:27:17.139Z,7.82
2022-10-11T10:30:59.683Z,12.48
2022-10-11T10:35:31.256Z,9.48
2022-10-11T10:39:45.008Z,10.00
2022-10-11T10:43:32.113Z,8.90
2022-10-11T10:47:35.562Z,8.77
2022-10-11T10:51:32.739Z,10.20
2022-10-11T10:55:59.142Z,14.60
2022-10-11T11:00:01.745Z,9.80
2022-10-11T11:04:20.588Z,11.05
2022-10-11T11:08:10.285Z,9.57
2022-10-11T11:12:23.577Z,7.50
2022-10-11T11:16:11.726Z,12.93
2022-10-11T11:20:09.429Z,10.65
2022-10-11T11:24:18.461Z,8.18
2022-10-11T11:28:22.057Z,6.80
2022-10-11T11:32:24.279Z,8.82
2022-10-11T11:36:16.828Z,8.02
2022-10-11T11:40:19.265Z,8.77
2022-10-11T11:44:30.139Z,9.25
2022-10-11T11:48:30.423Z,11.18
2022-10-11T11:52:38.039Z,6.82
2022-10-11T11:56:29.434Z,9.98
2022-10-11T12:00:21.259Z,6.85
2022-10-11T12:04:33.449Z,9.60
2022-10-11T12:08:28.293Z,6.05
2022-10-11T12:12:35.559Z,5.43
2022-10-11T12:16:18.685Z,7.35
2022-10-11T12:20:13.057Z,7.35
2022-10-11T12:24:11.550Z,5.72
2022-10-11T12:27:55.935Z,9.23
2022-10-11T12:31:40.309Z,5.72
2022-10-11T12:35:32.107Z,11.18
2022-10-11T12:39:20.258Z,7.85
2022-10-11T12:43:14.321Z,8.23
2022-10-11T12:46:58.900Z,8.13
2022-10-11T12:51:03.794Z,8.18
2022-10-11T12:55:02.770Z,7.03
2022-10-11T12:58:48.260Z,7.95
2022-10-11T13:02:39.910Z,7.00
2022-10-11T13:06:27.487Z,7.45
2022-10-11T13:10:15.925Z,6.63
2022-10-11T13:14:10.738Z,8.65
2022-10-11T13:21:39.839Z,7.60
2022-10-11T13:25:27.733Z,6.32
2022-10-11T13:29:34.028Z,5.80
2022-10-11T13:33:26.796Z,6.07
2022-10-11T13:37:17.959Z,11.10
2022-10-11T13:41:04.117Z,9.45
2022-10-11T13:44:47.272Z,11.07
2022-10-11T13:48:32.122Z,5.47
2022-10-11T13:56:08.517Z,12.00
2022-10-11T13:59:50.647Z,6.15
2022-10-11T14:03:49.116Z,6.95
2022-10-11T14:07:38.467Z,13.00
2022-10-11T14:11:39.803Z,6.30
2022-10-11T14:15:34.616Z,7.55
2022-10-11T14:19:19.960Z,9.25
2022-10-11T14:23:02.170Z,7.38
2022-10-11T14:26:47.773Z,7.85
2022-10-11T14:30:31.694Z,7.55
2022-10-11T14:34:24.656Z,8.18
2022-10-11T14:38:06.481Z,7.40
2022-10-11T14:41:49.353Z,8.73
2022-10-11T14:45:31.490Z,8.10
2022-10-11T14:49:37.526Z,9.40
2022-10-11T14:53:19.830Z,8.55
2022-10-11T14:57:04.006Z,9.02
2022-10-11T15:00:46.111Z,17.60
2022-10-11T15:04:28.355Z,7.38
2022-10-11T15:08:11.699Z,10.70
2022-10-11T15:11:55.050Z,8.75
2022-10-11T15:15:40.958Z,8.45
2022-10-11T15:19:25.358Z,9.20
2022-10-11T15:23:09.867Z,7.78
2022-10-11T15:26:51.865Z,6.65
2022-10-11T15:30:41.117Z,5.70
2022-10-11T15:34:23.661Z,23.73
2022-10-11T15:38:05.508Z,8.60
2022-10-11T15:41:47.590Z,8.20
2022-10-11T15:45:30.405Z,7.95
2022-10-11T15:49:13.697Z,7.10
2022-10-11T15:52:55.766Z,7.32
2022-10-11T15:56:37.862Z,10.10
2022-10-11T16:00:22.350Z,7.13
2022-10-11T16:04:04.583Z,8.45
2022-10-11T16:07:46.450Z,6.65
2022-10-11T16:11:28.546Z,11.73
2022-10-11T16:15:11.268Z,10.13
2022-10-11T16:18:53.423Z,8.93
2022-10-11T16:22:35.708Z,10.18
2022-10-11T16:26:17.869Z,8.40
2022-10-11T16:30:00.696Z,9.30
2022-10-11T16:33:46.248Z,8.63
2022-10-11T16:37:28.560Z,9.50
2022-10-11T16:41:10.514Z,8.70
2022-10-11T16:44:52.676Z,11.55
2022-10-11T16:48:34.523Z,8.13
2022-10-11T16:52:16.535Z,9.87
2022-10-11T16:55:58.427Z,12.37
2022-10-11T16:59:40.820Z,10.67
2022-10-11T17:03:22.647Z,11.37
2022-10-11T17:07:05.578Z,16.40
2022-10-11T17:10:57.909Z,10.43
2022-10-11T17:14:41.187Z,14.90
2022-10-11T17:18:23.171Z,9.13
2022-10-11T17:22:05.168Z,7.43
2022-10-11T17:25:47.337Z,10.03
2022-10-11T17:29:30.004Z,10.10
2022-10-11T17:33:12.188Z,10.20
2022-10-11T17:36:54.404Z,13.53
2022-10-11T17:40:36.316Z,13.43
2022-10-11T17:44:18.965Z,13.60
2022-10-11T17:48:04.007Z,11.50
2022-10-11T17:51:46.086Z,13.03
2022-10-11T17:55:27.991Z,14.47
2022-10-11T17:59:16.664Z,27.43
2022-10-11T18:02:58.539Z,13.40
2022-10-11T18:06:40.441Z,11.93
2022-10-11T18:10:22.571Z,10.53
2022-10-11T18:14:05.496Z,14.30
2022-10-11T18:17:48.000Z,8.80
2022-10-11T18:21:34.302Z,13.20
2022-10-11T18:25:17.159Z,13.03
2022-10-11T18:28:59.224Z,10.73
2022-10-11T18:32:41.368Z,23.27
2022-10-11T18:36:25.758Z,14.53
2022-10-11T18:40:08.554Z,16.00
2022-10-11T18:43:52.835Z,13.93
2022-10-11T18:47:34.736Z,8.90
2022-10-11T18:51:22.655Z,12.87
2022-10-11T18:55:05.046Z,8.37
2022-10-11T18:58:48.351Z,14.63
2022-10-11T19:02:30.274Z,11.07
2022-10-11T19:06:17.864Z,13.30
2022-10-11T19:10:00.589Z,9.47
2022-10-11T19:13:43.346Z,10.73
2022-10-11T19:17:25.244Z,23.93
2022-10-11T19:21:10.388Z,13.20
2022-10-11T19:24:52.289Z,19.30
2022-10-11T19:28:34.781Z,14.93
2022-10-11T19:32:16.698Z,15.37
2022-10-11T19:35:59.813Z,16.83
2022-10-11T19:39:41.896Z,23.73
2022-10-11T19:43:23.842Z,22.87
2022-10-11T19:47:05.815Z,23.60
2022-10-11T19:50:47.707Z,19.90
2022-10-11T19:54:29.715Z,23.83
2022-10-11T19:58:11.599Z,23.73
2022-10-11T20:01:53.736Z,20.00
2022-10-11T20:05:37.920Z,20.13
2022-10-11T20:09:35.018Z,18.30
2022-10-11T20:13:16.921Z,15.73
2022-10-11T20:16:58.796Z,15.43
2022-10-11T20:20:55.143Z,19.10
2022-10-11T20:24:37.023Z,14.73
2022-10-11T20:28:19.105Z,15.30
2022-10-11T20:32:01.127Z,10.10
2022-10-11T20:35:43.008Z,13.93
2022-10-11T20:39:25.499Z,16.27
2022-10-11T20:43:07.446Z,12.00
2022-10-11T20:46:49.344Z,16.47
2022-10-11T20:50:31.266Z,13.37
2022-10-11T20:54:13.232Z,15.20
2022-10-11T20:57:56.455Z,14.07
2022-10-11T21:01:40.714Z,17.97
2022-10-11T21:05:22.651Z,17.43
2022-10-11T21:09:04.602Z,21.17
2022-10-11T21:12:46.652Z,14.00
2022-10-11T21:16:29.172Z,12.60
2022-10-11T21:20:11.240Z,21.03
2022-10-11T21:23:57.967Z,15.50
2022-10-11T21:27:40.008Z,14.67
2022-10-11T21:31:22.964Z,17.17
2022-10-11T21:35:04.907Z,15.67
2022-10-11T21:38:48.094Z,17.83
2022-10-11T21:42:30.209Z,22.47
2022-10-11T21:46:19.490Z,18.73
2022-10-11T21:50:01.300Z,19.80
2022-10-11T21:53:43.141Z,18.90
2022-10-11T21:57:25.019Z,20.33
2022-10-11T22:01:06.945Z,19.10
2022-10-11T22:04:48.987Z,12.73
2022-10-11T22:08:31.205Z,17.27
2022-10-11T22:12:13.248Z,15.80
2022-10-11T22:15:58.112Z,19.03
2022-10-11T22:19:40.545Z,27.10
2022-10-11T22:23:22.499Z,15.90
2022-10-11T22:27:04.621Z,18.40
2022-10-11T22:30:48.352Z,14.40
2022-10-11T22:34:33.762Z,15.27
2022-10-11T22:38:15.672Z,19.20
2022-10-11T22:41:57.647Z,16.43
2022-10-11T22:45:40.605Z,17.03
2022-10-11T22:49:22.606Z,19.00
2022-10-11T22:53:08.698Z,18.33
2022-10-11T22:56:50.843Z,24.02
2022-10-11T23:00:33.060Z,22.47
2022-10-11T23:04:17.788Z,17.27
2022-10-11T23:07:59.615Z,19.73
2022-10-11T23:11:41.550Z,17.23
2022-10-11T23:15:23.464Z,20.33
2022-10-11T23:19:05.561Z,18.10
2022-10-11T23:22:47.412Z,16.13
2022-10-11T23:26:29.404Z,17.87
2022-10-11T23:30:12.232Z,16.70
2022-10-11T23:33:54.616Z,18.03
2022-10-11T23:37:36.916Z,21.43
2022-10-11T23:41:20.090Z,16.60
2022-10-11T23:45:02.073Z,14.73
2022-10-11T23:48:44.017Z,18.43
2022-10-11T23:52:25.887Z,14.77
2022-10-11T23:56:10.734Z,15.70
2022-10-11T23:59:52.639Z,16.23
